Time;durP1;ratioP1;P1;durP2;ratioP2;P2;SDS_P1;SDS_P2;PMS_P1;PMS_P2;Temp;Humidity;BMP_temperature;BMP_pressure;BME280_temperature;BME280_humidity;BME280_pressure;Samples;Min_cycle;Max_cycle;Signal;HPM_P1;HPM_P2
2022/01/20 00:00:13;;;;;;;9.38;4.72;;;;;;;;;;5034333;28;20092;-75
2022/01/20 00:02:37;;;;;;;7.90;4.75;;;;;;;;;;5035544;28;20028;-75
2022/01/20 00:05:11;;;;;;;10.98;4.32;;;;;;;;;;5035958;28;20025;-75
2022/01/20 00:26:53;;;;;;;10.73;5.10;;;;;;;;;;5035331;28;20040;-75
2022/01/20 00:29:25;;;;;;;8.98;4.85;;;;;;;;;;5033986;28;20045;-75
2022/01/20 00:32:10;;;;;;;8.75;4.82;;;;;;;;;;5035772;28;20017;-75
2022/01/20 00:35:12;;;;;;;8.55;4.75;;;;;;;;;;5035896;28;20022;-75
2022/01/20 00:37:30;;;;;;;11.88;4.40;;;;;;;;;;5035560;28;20074;-75
2022/01/20 00:39:56;;;;;;;10.13;5.07;;;;;;;;;;5034382;28;20432;-75
2022/01/20 00:42:22;;;;;;;11.40;5.75;;;;;;;;;;5033884;28;20021;-75
2022/01/20 00:44:49;;;;;;;11.80;5.75;;;;;;;;;;5035810;28;20043;-75
2022/01/20 00:47:16;;;;;;;9.18;5.05;;;;;;;;;;5035084;28;20104;-75
2022/01/20 00:49:42;;;;;;;9.90;5.57;;;;;;;;;;5034998;28;20034;-75
2022/01/20 00:52:09;;;;;;;8.05;5.30;;;;;;;;;;5035407;28;20087;-75
2022/01/20 00:54:35;;;;;;;12.20;5.57;;;;;;;;;;5035029;28;20029;-75
2022/01/20 00:57:01;;;;;;;8.85;5.20;;;;;;;;;;5034242;28;20032;-75
2022/01/20 00:59:29;;;;;;;10.52;5.60;;;;;;;;;;5033678;28;20404;-75
2022/01/20 01:01:57;;;;;;;8.32;5.05;;;;;;;;;;5034512;28;20025;-75
2022/01/20 01:04:24;;;;;;;8.35;4.70;;;;;;;;;;5035688;28;20060;-75
2022/01/20 01:09:22;;;;;;;10.65;5.70;;;;;;;;;;5038963;28;20040;-74
2022/01/20 01:11:50;;;;;;;11.48;5.47;;;;;;;;;;5037942;28;20104;-75
2022/01/20 01:14:18;;;;;;;8.15;5.05;;;;;;;;;;5037847;28;20092;-75
2022/01/20 01:24:42;;;;;;;10.38;5.57;;;;;;;;;;5038937;28;20017;-74
2022/01/20 01:27:09;;;;;;;12.40;6.95;;;;;;;;;;5038079;28;20396;-75
2022/01/20 01:30:01;;;;;;;14.30;6.88;;;;;;;;;;5036911;28;20037;-75
2022/01/20 01:32:40;;;;;;;15.88;6.30;;;;;;;;;;5038541;28;20079;-75
2022/01/20 01:35:09;;;;;;;14.93;8.93;;;;;;;;;;5037100;28;20048;-75
2022/01/20 01:40:08;;;;;;;19.52;10.82;;;;;;;;;;5038609;28;20025;-75
2022/01/20 01:42:46;;;;;;;18.65;10.10;;;;;;;;;;5036624;28;20017;-75
2022/01/20 01:45:17;;;;;;;18.63;10.02;;;;;;;;;;5037686;28;20092;-75
2022/01/20 01:47:44;;;;;;;13.63;9.45;;;;;;;;;;5038457;28;20066;-75
2022/01/20 01:50:10;;;;;;;18.48;10.40;;;;;;;;;;5037544;28;20393;-75
2022/01/20 01:52:36;;;;;;;20.63;12.10;;;;;;;;;;5038274;28;20131;-75
2022/01/20 01:55:03;;;;;;;20.98;11.88;;;;;;;;;;5037464;28;20100;-75
2022/01/20 01:57:29;;;;;;;20.25;10.90;;;;;;;;;;5020738;28;20039;-75
2022/01/20 01:59:56;;;;;;;24.60;11.85;;;;;;;;;;5037277;28;20114;-75
2022/01/20 02:02:22;;;;;;;26.73;13.30;;;;;;;;;;5020632;28;20044;-75
2022/01/20 02:04:49;;;;;;;23.05;11.70;;;;;;;;;;5036973;28;20035;-75
2022/01/20 02:20:43;;;;;;;24.60;12.55;;;;;;;;;;5037594;28;20091;-74
2022/01/20 02:23:09;;;;;;;21.25;11.57;;;;;;;;;;5036956;28;20017;-75
2022/01/20 02:25:38;;;;;;;21.38;12.50;;;;;;;;;;5020383;28;20083;-75
2022/01/20 02:28:08;;;;;;;23.13;12.95;;;;;;;;;;5036931;28;20062;-75
2022/01/20 02:30:48;;;;;;;26.20;13.70;;;;;;;;;;5036176;28;20052;-75
2022/01/20 02:33:23;;;;;;;22.90;13.90;;;;;;;;;;5019546;28;20323;-75
2022/01/20 02:35:55;;;;;;;24.30;13.30;;;;;;;;;;5035745;28;20439;-75
2022/01/20 02:46:19;;;;;;;23.40;12.88;;;;;;;;;;5036681;28;20293;-75
2022/01/20 02:48:45;;;;;;;27.52;16.83;;;;;;;;;;5037312;28;20033;-75
2022/01/20 02:51:11;;;;;;;26.15;16.60;;;;;;;;;;5035481;28;20033;-75
2022/01/20 02:53:38;;;;;;;30.42;15.63;;;;;;;;;;5036725;28;20022;-75
2022/01/20 02:56:04;;;;;;;29.48;13.85;;;;;;;;;;5035365;28;20108;-75
2022/01/20 02:58:31;;;;;;;25.00;13.13;;;;;;;;;;5035527;28;20021;-75
2022/01/20 03:00:57;;;;;;;32.40;17.60;;;;;;;;;;5018512;28;20396;-75
2022/01/20 03:03:24;;;;;;;45.30;24.30;;;;;;;;;;5018686;28;20041;-75
2022/01/20 03:05:50;;;;;;;40.03;22.90;;;;;;;;;;5036268;28;20026;-75
2022/01/20 03:08:17;;;;;;;38.28;20.42;;;;;;;;;;5036502;28;20021;-75
2022/01/20 03:10:43;;;;;;;33.78;18.58;;;;;;;;;;5018445;28;20037;-75
2022/01/20 03:13:09;;;;;;;33.50;19.42;;;;;;;;;;5018424;28;20077;-75
2022/01/20 03:15:35;;;;;;;31.52;19.88;;;;;;;;;;5018582;28;20029;-75
2022/01/20 03:18:03;;;;;;;29.80;17.10;;;;;;;;;;5034943;28;20017;-75
2022/01/20 03:20:29;;;;;;;30.17;16.98;;;;;;;;;;5018326;28;20131;-76
2022/01/20 03:22:55;;;;;;;31.10;18.25;;;;;;;;;;5034361;28;20025;-76
2022/01/20 03:25:21;;;;;;;33.20;15.85;;;;;;;;;;5036115;28;20336;-75
2022/01/20 03:27:47;;;;;;;31.75;16.77;;;;;;;;;;5035296;28;20374;-76
2022/01/20 03:30:14;;;;;;;30.63;16.23;;;;;;;;;;5034601;28;20041;-75
2022/01/20 03:32:40;;;;;;;38.20;17.58;;;;;;;;;;5035753;28;20059;-76
2022/01/20 03:35:07;;;;;;;31.70;15.63;;;;;;;;;;5034439;28;20048;-76
2022/01/20 03:37:33;;;;;;;32.35;15.60;;;;;;;;;;5034305;28;20553;-76
2022/01/20 03:40:01;;;;;;;24.38;12.85;;;;;;;;;;5035352;28;20427;-76
2022/01/20 03:42:28;;;;;;;29.00;15.95;;;;;;;;;;5018303;28;20029;-76
2022/01/20 03:44:54;;;;;;;19.90;12.38;;;;;;;;;;5034458;28;20017;-76
2022/01/20 03:47:24;;;;;;;17.92;9.90;;;;;;;;;;5035115;28;20021;-76
2022/01/20 03:52:26;;;;;;;15.23;9.32;;;;;;;;;;5036303;28;20374;-76
2022/01/20 03:54:53;;;;;;;16.23;7.63;;;;;;;;;;5034562;28;20087;-76
2022/01/20 03:57:20;;;;;;;11.32;6.35;;;;;;;;;;5034531;28;20039;-76
2022/01/20 03:59:46;;;;;;;11.68;5.93;;;;;;;;;;5018346;28;20311;-76
2022/01/20 04:02:12;;;;;;;14.52;7.47;;;;;;;;;;5018437;28;20048;-76
2022/01/20 04:04:39;;;;;;;13.05;7.05;;;;;;;;;;5017742;28;20182;-76
2022/01/20 04:07:06;;;;;;;15.85;9.07;;;;;;;;;;5018083;28;20017;-76
2022/01/20 04:09:32;;;;;;;17.50;8.32;;;;;;;;;;5034435;28;20042;-76
2022/01/20 04:11:58;;;;;;;16.55;10.70;;;;;;;;;;5034365;28;20372;-76
2022/01/20 04:14:26;;;;;;;19.23;10.55;;;;;;;;;;5034776;28;20074;-76
2022/01/20 04:19:24;;;;;;;21.10;12.70;;;;;;;;;;5034076;28;20021;-76
2022/01/20 04:21:50;;;;;;;18.50;13.18;;;;;;;;;;5034700;28;20088;-76
2022/01/20 04:24:17;;;;;;;18.55;12.15;;;;;;;;;;5018078;28;20018;-76
2022/01/20 04:26:47;;;;;;;19.77;12.38;;;;;;;;;;5035829;28;20087;-76
2022/01/20 04:29:16;;;;;;;20.38;14.20;;;;;;;;;;5034382;28;20412;-76
2022/01/20 04:31:43;;;;;;;17.50;11.95;;;;;;;;;;5035120;28;20331;-75
2022/01/20 04:34:10;;;;;;;18.65;11.30;;;;;;;;;;5033900;28;20055;-75
2022/01/20 04:36:40;;;;;;;16.88;12.27;;;;;;;;;;5035991;28;20042;-76
2022/01/20 04:39:10;;;;;;;17.52;10.73;;;;;;;;;;5035536;28;20033;-76
2022/01/20 04:41:36;;;;;;;15.50;9.57;;;;;;;;;;5037623;28;20044;-76
2022/01/20 04:44:06;;;;;;;13.05;8.25;;;;;;;;;;5038274;28;20057;-76
2022/01/20 04:57:17;;;;;;;19.33;11.18;;;;;;;;;;5038388;28;20027;-76
2022/01/20 04:59:45;;;;;;;15.90;10.70;;;;;;;;;;5037585;28;20068;-76
2022/01/20 05:02:11;;;;;;;14.75;8.77;;;;;;;;;;5037149;28;20013;-76
2022/01/20 05:04:39;;;;;;;15.25;8.25;;;;;;;;;;5021382;28;20112;-76
2022/01/20 05:07:12;;;;;;;14.15;7.22;;;;;;;;;;5037515;28;20009;-76
2022/01/20 05:09:39;;;;;;;;;;;;;;;;;;5037489;28;20436;-76
2022/01/20 05:12:10;;;;;;;11.70;6.88;;;;;;;;;;5021384;28;19991;-76
2022/01/20 05:14:39;;;;;;;14.18;7.35;;;;;;;;;;5037423;28;20056;-75
2022/01/20 05:17:06;;;;;;;13.57;7.15;;;;;;;;;;5037376;28;20028;-76
2022/01/20 05:19:33;;;;;;;16.55;8.43;;;;;;;;;;5020516;28;20444;-75
2022/01/20 05:22:00;;;;;;;16.40;8.63;;;;;;;;;;5020059;28;20021;-76
2022/01/20 05:24:27;;;;;;;12.88;7.18;;;;;;;;;;5020820;28;20439;-75
2022/01/20 05:26:55;;;;;;;19.77;7.20;;;;;;;;;;5037174;28;20032;-76
2022/01/20 05:29:22;;;;;;;13.65;6.78;;;;;;;;;;5037042;28;20090;-75
2022/01/20 05:31:48;;;;;;;15.40;8.55;;;;;;;;;;5036710;28;20045;-74
2022/01/20 05:34:15;;;;;;;12.75;7.65;;;;;;;;;;5037645;28;20044;-75
2022/01/20 05:36:47;;;;;;;14.80;7.63;;;;;;;;;;5021069;28;20091;-75
2022/01/20 05:39:13;;;;;;;16.65;10.60;;;;;;;;;;5037136;28;20147;-74
2022/01/20 05:41:39;;;;;;;19.45;10.38;;;;;;;;;;5020428;28;20083;-75
2022/01/20 05:44:06;;;;;;;26.08;11.38;;;;;;;;;;5036603;28;20036;-74
2022/01/20 05:46:41;;;;;;;17.75;9.43;;;;;;;;;;5036933;28;20025;-74
2022/01/20 05:49:10;;;;;;;20.00;10.55;;;;;;;;;;5036739;28;20017;-73
2022/01/20 05:51:38;;;;;;;16.30;9.77;;;;;;;;;;5035903;28;20040;-74
2022/01/20 05:54:05;;;;;;;17.27;10.15;;;;;;;;;;5036642;28;20025;-74
2022/01/20 05:56:31;;;;;;;17.65;10.90;;;;;;;;;;5037613;28;20044;-74
2022/01/20 05:58:59;;;;;;;19.65;12.57;;;;;;;;;;5020508;28;20017;-74
2022/01/20 06:01:26;;;;;;;19.63;12.45;;;;;;;;;;5019823;28;20025;-74
2022/01/20 06:03:52;;;;;;;22.17;12.05;;;;;;;;;;5020139;28;20020;-74
2022/01/20 06:06:18;;;;;;;22.40;13.63;;;;;;;;;;5020206;28;20029;-74
2022/01/20 06:08:45;;;;;;;27.50;15.45;;;;;;;;;;5020310;28;20022;-74
2022/01/20 06:11:11;;;;;;;23.08;13.20;;;;;;;;;;5019605;28;20037;-74
2022/01/20 06:13:41;;;;;;;18.85;12.32;;;;;;;;;;5036702;28;20075;-74
2022/01/20 06:16:07;;;;;;;14.32;8.25;;;;;;;;;;5037367;28;20382;-73
2022/01/20 06:18:34;;;;;;;15.90;8.65;;;;;;;;;;5035944;28;20022;-74
2022/01/20 06:21:00;;;;;;;15.23;9.48;;;;;;;;;;5036173;28;20112;-75
2022/01/20 06:23:27;;;;;;;13.65;8.52;;;;;;;;;;5035434;28;20116;-74
2022/01/20 06:25:53;;;;;;;17.67;10.13;;;;;;;;;;5019349;28;20083;-74
2022/01/20 06:28:22;;;;;;;19.17;10.05;;;;;;;;;;5035810;28;20034;-75
2022/01/20 06:30:49;;;;;;;16.05;9.65;;;;;;;;;;5034985;28;20041;-75
2022/01/20 06:33:16;;;;;;;18.55;11.25;;;;;;;;;;5019428;28;20052;-74
2022/01/20 06:35:42;;;;;;;16.40;9.98;;;;;;;;;;5036109;28;20029;-74
2022/01/20 06:38:08;;;;;;;17.95;10.00;;;;;;;;;;5019356;28;20439;-76
2022/01/20 06:40:34;;;;;;;18.65;10.45;;;;;;;;;;5036011;28;20051;-74
2022/01/20 06:43:02;;;;;;;23.85;13.98;;;;;;;;;;5035643;28;20013;-75
2022/01/20 06:45:30;;;;;;;15.85;10.02;;;;;;;;;;5019858;28;20036;-75
2022/01/20 06:47:57;;;;;;;17.73;11.55;;;;;;;;;;5019900;28;20017;-76
2022/01/20 06:50:25;;;;;;;17.02;10.52;;;;;;;;;;5019524;28;20033;-75
2022/01/20 06:52:52;;;;;;;11.25;8.07;;;;;;;;;;5019168;28;20458;-75
2022/01/20 06:55:18;;;;;;;15.27;8.23;;;;;;;;;;5018995;28;20085;-75
2022/01/20 06:57:44;;;;;;;13.15;9.60;;;;;;;;;;5019112;28;20017;-76
2022/01/20 07:00:15;;;;;;;15.32;10.73;;;;;;;;;;5019122;28;20021;-75
2022/01/20 07:02:43;;;;;;;16.70;10.60;;;;;;;;;;5035103;28;20416;-76
2022/01/20 07:05:10;;;;;;;22.60;12.68;;;;;;;;;;5035135;28;20051;-75
2022/01/20 07:07:37;;;;;;;19.63;11.60;;;;;;;;;;5035622;28;20032;-74
2022/01/20 07:10:03;;;;;;;24.25;14.98;;;;;;;;;;5019120;28;20033;-75
2022/01/20 07:12:29;;;;;;;17.20;11.38;;;;;;;;;;5019211;28;20018;-75
2022/01/20 07:14:55;;;;;;;16.73;9.35;;;;;;;;;;5018960;28;20124;-75
2022/01/20 07:17:21;;;;;;;15.10;10.15;;;;;;;;;;5018762;28;20265;-75
2022/01/20 07:19:48;;;;;;;17.08;10.85;;;;;;;;;;5034952;28;20029;-75
2022/01/20 07:22:15;;;;;;;17.63;11.02;;;;;;;;;;5035493;28;20036;-75
2022/01/20 07:24:41;;;;;;;18.35;12.32;;;;;;;;;;5034388;28;20103;-76
2022/01/20 07:27:08;;;;;;;25.80;14.98;;;;;;;;;;5035177;28;20021;-76
2022/01/20 07:29:34;;;;;;;22.83;14.48;;;;;;;;;;5018668;28;20044;-75
2022/01/20 07:32:07;;;;;;;16.20;10.85;;;;;;;;;;5018783;28;20448;-74
2022/01/20 07:34:34;;;;;;;17.83;11.50;;;;;;;;;;5034629;28;20097;-75
2022/01/20 07:37:00;;;;;;;19.98;12.25;;;;;;;;;;5018211;28;20124;-75
2022/01/20 07:39:29;;;;;;;21.83;13.85;;;;;;;;;;5035122;28;20039;-76
2022/01/20 07:41:55;;;;;;;22.70;13.32;;;;;;;;;;5018426;28;20040;-76
2022/01/20 07:44:21;;;;;;;17.80;11.45;;;;;;;;;;5018626;28;20071;-76
2022/01/20 07:46:48;;;;;;;17.55;11.23;;;;;;;;;;5034978;28;20028;-76
2022/01/20 07:49:14;;;;;;;18.13;11.00;;;;;;;;;;5018226;28;20316;-76
2022/01/20 07:51:43;;;;;;;15.57;9.43;;;;;;;;;;5034995;28;20026;-76
2022/01/20 07:54:10;;;;;;;17.08;10.18;;;;;;;;;;5034755;28;20090;-76
2022/01/20 07:56:36;;;;;;;20.70;13.43;;;;;;;;;;5034493;28;20020;-76
2022/01/20 07:59:03;;;;;;;26.05;16.30;;;;;;;;;;5018336;28;20021;-75
2022/01/20 08:01:29;;;;;;;26.85;16.23;;;;;;;;;;5034547;28;20022;-75
2022/01/20 08:03:55;;;;;;;27.88;17.30;;;;;;;;;;5017732;28;20032;-75
2022/01/20 08:06:24;;;;;;;25.77;16.25;;;;;;;;;;5018313;28;20021;-75
2022/01/20 08:08:51;;;;;;;28.80;16.05;;;;;;;;;;5018506;28;20032;-75
2022/01/20 08:11:23;;;;;;;21.25;12.93;;;;;;;;;;5034179;28;20095;-74
2022/01/20 08:13:49;;;;;;;18.50;11.50;;;;;;;;;;5019465;28;20025;-76
2022/01/20 08:16:15;;;;;;;19.85;12.57;;;;;;;;;;5022002;28;20376;-76
2022/01/20 08:18:41;;;;;;;18.73;12.25;;;;;;;;;;5038479;28;20048;-76
2022/01/20 08:21:07;;;;;;;19.52;12.15;;;;;;;;;;5022118;28;20025;-76
2022/01/20 08:23:34;;;;;;;20.35;13.65;;;;;;;;;;5039542;28;20029;-75
2022/01/20 08:26:00;;;;;;;23.05;14.90;;;;;;;;;;5022119;28;20017;-75
2022/01/20 08:28:26;;;;;;;21.08;13.80;;;;;;;;;;5037902;28;20029;-76
2022/01/20 08:30:52;;;;;;;20.77;13.45;;;;;;;;;;5038530;28;20427;-76
2022/01/20 08:33:18;;;;;;;24.80;14.93;;;;;;;;;;5022019;28;20021;-75
2022/01/20 08:35:44;;;;;;;22.70;14.43;;;;;;;;;;5039604;28;20025;-75
2022/01/20 08:38:11;;;;;;;23.42;14.05;;;;;;;;;;5022395;28;20349;-75
2022/01/20 08:40:37;;;;;;;21.27;13.93;;;;;;;;;;5037893;28;20025;-75
2022/01/20 08:43:05;;;;;;;23.10;12.63;;;;;;;;;;5022128;28;20025;-75
2022/01/20 08:45:33;;;;;;;19.50;11.25;;;;;;;;;;5031829;23;20096;-75
2022/01/20 08:47:59;;;;;;;15.88;10.82;;;;;;;;;;5059124;28;20013;-75
2022/01/20 08:50:27;;;;;;;17.73;10.10;;;;;;;;;;5058662;28;20038;-75
2022/01/20 08:52:55;;;;;;;19.40;10.40;;;;;;;;;;5041257;28;20025;-76
2022/01/20 08:55:21;;;;;;;20.40;10.82;;;;;;;;;;5057999;28;20025;-75
2022/01/20 08:57:48;;;;;;;17.73;11.70;;;;;;;;;;5058525;28;20108;-75
2022/01/20 09:00:15;;;;;;;19.67;13.18;;;;;;;;;;5041403;28;20021;-75
2022/01/20 09:02:41;;;;;;;18.73;12.15;;;;;;;;;;5059116;28;20335;-76
2022/01/20 09:05:08;;;;;;;20.38;13.25;;;;;;;;;;5041223;28;20125;-75
2022/01/20 09:07:34;;;;;;;18.15;11.48;;;;;;;;;;5056022;28;20435;-75
2022/01/20 09:10:04;;;;;;;20.83;11.77;;;;;;;;;;5039542;28;20339;-75
2022/01/20 09:17:44;;;;;;;26.10;16.33;;;;;;;;;;5056337;28;20370;-75
2022/01/20 09:20:11;;;;;;;28.35;17.65;;;;;;;;;;5057646;28;20027;-75
2022/01/20 09:22:37;;;;;;;26.23;16.13;;;;;;;;;;5058716;28;20405;-75
2022/01/20 09:25:04;;;;;;;25.05;13.85;;;;;;;;;;5056496;28;20082;-75
2022/01/20 09:27:31;;;;;;;21.00;12.65;;;;;;;;;;5041420;28;20021;-75
2022/01/20 09:29:57;;;;;;;24.75;15.15;;;;;;;;;;5057170;28;20040;-75
2022/01/20 09:32:26;;;;;;;21.40;14.88;;;;;;;;;;5057552;28;20017;-75
2022/01/20 09:34:52;;;;;;;24.67;14.85;;;;;;;;;;5057545;28;20020;-75
2022/01/20 09:37:20;;;;;;;22.17;15.02;;;;;;;;;;5041273;28;20127;-75
2022/01/20 09:39:46;;;;;;;21.30;14.35;;;;;;;;;;5057588;28;20066;-75
2022/01/20 09:42:13;;;;;;;20.90;13.30;;;;;;;;;;5058521;28;20446;-75
2022/01/20 09:44:44;;;;;;;22.08;13.45;;;;;;;;;;5041323;28;20067;-75
2022/01/20 09:47:11;;;;;;;20.92;14.18;;;;;;;;;;5057363;28;20059;-75
2022/01/20 09:49:38;;;;;;;22.25;13.82;;;;;;;;;;5058733;28;20037;-75
2022/01/20 09:52:04;;;;;;;21.23;13.15;;;;;;;;;;5040733;28;20111;-75
2022/01/20 09:54:31;;;;;;;18.42;11.75;;;;;;;;;;5057227;28;20031;-75
2022/01/20 09:56:59;;;;;;;23.25;13.25;;;;;;;;;;5041144;28;20334;-75
2022/01/20 09:59:25;;;;;;;20.60;13.52;;;;;;;;;;5058109;28;20016;-75
2022/01/20 10:01:56;;;;;;;24.08;14.00;;;;;;;;;;5040627;28;20048;-75
2022/01/20 10:04:27;;;;;;;27.17;16.77;;;;;;;;;;5040756;28;20017;-75
2022/01/20 10:07:00;;;;;;;27.55;13.70;;;;;;;;;;5058296;28;20104;-75
2022/01/20 10:09:33;;;;;;;23.48;14.43;;;;;;;;;;5057227;28;20127;-75
2022/01/20 10:11:59;;;;;;;25.67;18.00;;;;;;;;;;5057266;28;20017;-75
2022/01/20 10:14:25;;;;;;;28.13;16.27;;;;;;;;;;5040296;28;20319;-75
2022/01/20 10:16:52;;;;;;;25.23;15.63;;;;;;;;;;5057526;28;20439;-75
2022/01/20 10:19:22;;;;;;;20.13;13.57;;;;;;;;;;5056326;28;20107;-75
2022/01/20 10:21:49;;;;;;;26.45;12.75;;;;;;;;;;5057149;28;20411;-75
2022/01/20 10:24:15;;;;;;;20.23;12.73;;;;;;;;;;5056119;28;20025;-76
2022/01/20 10:26:41;;;;;;;23.45;13.68;;;;;;;;;;5039815;28;20028;-76
2022/01/20 10:29:15;;;;;;;24.52;13.25;;;;;;;;;;5039782;28;20029;-75
2022/01/20 10:31:41;;;;;;;21.30;13.13;;;;;;;;;;5056433;28;20017;-75
2022/01/20 10:34:19;;;;;;;28.98;14.20;;;;;;;;;;5055773;28;20408;-75
2022/01/20 10:36:54;;;;;;;24.77;14.77;;;;;;;;;;5039301;28;20052;-75
2022/01/20 10:39:40;;;;;;;30.92;17.33;;;;;;;;;;5057797;28;20029;-75
2022/01/20 10:42:07;;;;;;;27.95;18.05;;;;;;;;;;5056732;28;20043;-75
2022/01/20 10:44:41;;;;;;;29.55;17.33;;;;;;;;;;5037530;23;20072;-75
2022/01/20 10:47:10;;;;;;;26.52;14.68;;;;;;;;;;5037016;28;20061;-76
2022/01/20 10:49:36;;;;;;;27.25;16.38;;;;;;;;;;5035933;28;20301;-75
2022/01/20 10:52:05;;;;;;;25.77;15.88;;;;;;;;;;5020439;28;20026;-75
2022/01/20 10:54:51;;;;;;;22.77;15.65;;;;;;;;;;5019837;28;20378;-75
2022/01/20 10:57:24;;;;;;;33.53;17.58;;;;;;;;;;5020854;28;20378;-75
2022/01/20 10:59:51;;;;;;;26.85;17.20;;;;;;;;;;5036103;28;20028;-75
2022/01/20 11:02:22;;;;;;;29.38;17.60;;;;;;;;;;5037476;28;20029;-74
2022/01/20 11:04:49;;;;;;;38.50;16.10;;;;;;;;;;5036204;28;20025;-75
2022/01/20 11:07:15;;;;;;;24.65;15.93;;;;;;;;;;5036184;28;20025;-75
2022/01/20 11:09:44;;;;;;;30.65;17.13;;;;;;;;;;5035819;28;20087;-76
2022/01/20 11:12:11;;;;;;;31.27;18.60;;;;;;;;;;5019998;28;20017;-76
2022/01/20 11:14:37;;;;;;;31.90;18.70;;;;;;;;;;5035470;28;20029;-76
2022/01/20 11:17:04;;;;;;;35.05;20.55;;;;;;;;;;5034380;28;20417;-75
2022/01/20 11:19:36;;;;;;;42.33;19.90;;;;;;;;;;5034035;28;20013;-76
2022/01/20 11:22:09;;;;;;;37.75;22.02;;;;;;;;;;5035873;28;20045;-75
2022/01/20 11:24:36;;;;;;;41.33;24.35;;;;;;;;;;5035853;28;20367;-75
2022/01/20 11:27:03;;;;;;;46.97;28.17;;;;;;;;;;5035884;28;20107;-75
2022/01/20 11:29:45;;;;;;;36.88;22.60;;;;;;;;;;5035570;28;20037;-75
2022/01/20 11:32:20;;;;;;;39.05;22.50;;;;;;;;;;5019058;28;20049;-75
2022/01/20 11:34:55;;;;;;;36.13;19.17;;;;;;;;;;5036375;28;20014;-75
2022/01/20 11:37:23;;;;;;;31.77;19.58;;;;;;;;;;5037206;28;20120;-75
2022/01/20 11:39:53;;;;;;;37.20;20.83;;;;;;;;;;5035964;28;20338;-76
2022/01/20 11:42:24;;;;;;;43.25;22.15;;;;;;;;;;5019589;28;20128;-75
2022/01/20 11:44:50;;;;;;;;;;;;;;;;;;5019343;28;20032;-76
2022/01/20 11:47:16;;;;;;;27.15;14.85;;;;;;;;;;5019797;28;19905;-75
2022/01/20 11:49:45;;;;;;;29.73;16.42;;;;;;;;;;5034901;28;20033;-76
2022/01/20 11:52:27;;;;;;;34.63;20.23;;;;;;;;;;5031250;23;20127;-75
2022/01/20 11:54:53;;;;;;;39.65;24.77;;;;;;;;;;5055112;28;20017;-75
2022/01/20 11:57:19;;;;;;;39.72;23.10;;;;;;;;;;5055368;28;20013;-74
2022/01/20 11:59:47;;;;;;;28.65;17.35;;;;;;;;;;5055599;28;20438;-76
2022/01/20 12:02:35;;;;;;;33.60;19.50;;;;;;;;;;5056983;28;20016;-76
2022/01/20 12:05:02;;;;;;;30.05;21.20;;;;;;;;;;5055327;28;20154;-75
2022/01/20 12:07:29;;;;;;;38.58;22.40;;;;;;;;;;5055063;28;20130;-75
2022/01/20 12:10:12;;;;;;;47.80;28.73;;;;;;;;;;5038976;28;20114;-74
2022/01/20 12:12:40;;;;;;;44.78;24.73;;;;;;;;;;5039234;28;20054;-75
2022/01/20 12:15:08;;;;;;;34.90;20.65;;;;;;;;;;5071987;28;20060;-74
2022/01/20 12:17:36;;;;;;;36.10;21.83;;;;;;;;;;5055570;28;20401;-75
2022/01/20 12:20:03;;;;;;;44.50;24.17;;;;;;;;;;5055051;28;20111;-75
2022/01/20 12:22:29;;;;;;;46.50;25.27;;;;;;;;;;5055769;28;20108;-75
2022/01/20 12:24:57;;;;;;;52.55;26.67;;;;;;;;;;5054968;28;20017;-75
2022/01/20 12:27:23;;;;;;;50.15;28.75;;;;;;;;;;5055551;28;20021;-76
2022/01/20 12:29:51;;;;;;;63.80;31.08;;;;;;;;;;5025694;23;20099;-75
2022/01/20 12:32:20;;;;;;;65.05;34.72;;;;;;;;;;5036102;28;20018;-76
2022/01/20 12:34:59;;;;;;;72.45;36.33;;;;;;;;;;5036006;28;20059;-76
2022/01/20 12:37:36;;;;;;;72.93;39.10;;;;;;;;;;5034040;28;20022;-75
2022/01/20 12:40:02;;;;;;;75.68;41.42;;;;;;;;;;5035772;28;20113;-76
2022/01/20 12:42:32;;;;;;;68.68;38.78;;;;;;;;;;5018490;28;20090;-76
2022/01/20 12:45:55;;;;;;;80.95;44.50;;;;;;;;;;5017983;28;20044;-75
2022/01/20 12:47:52;;;;;;;76.00;41.35;;;;;;;;;;5034836;28;20152;-76
2022/01/20 12:50:20;;;;;;;89.78;49.42;;;;;;;;;;5034469;28;20042;-75
2022/01/20 12:52:50;;;;;;;86.97;45.63;;;;;;;;;;5018753;28;20486;-75
2022/01/20 12:55:17;;;;;;;84.05;43.60;;;;;;;;;;5035990;28;20105;-74
2022/01/20 12:57:44;;;;;;;60.80;33.05;;;;;;;;;;5018590;28;20029;-75
2022/01/20 13:00:11;;;;;;;57.58;28.85;;;;;;;;;;5037453;28;20057;-75
2022/01/20 13:02:37;;;;;;;70.32;31.90;;;;;;;;;;5038825;28;20486;-75
2022/01/20 13:05:06;;;;;;;65.03;35.28;;;;;;;;;;5022210;28;20013;-75
2022/01/20 13:07:37;;;;;;;57.83;28.83;;;;;;;;;;5038031;28;20116;-75
2022/01/20 13:10:30;;;;;;;46.75;27.80;;;;;;;;;;5021948;28;20091;-75
2022/01/20 13:13:00;;;;;;;56.88;24.50;;;;;;;;;;5038162;28;20419;-75
2022/01/20 13:15:31;;;;;;;56.58;29.25;;;;;;;;;;5038458;28;20029;-75
2022/01/20 13:18:04;;;;;;;54.92;27.95;;;;;;;;;;5039696;28;20028;-76
2022/01/20 13:20:31;;;;;;;46.85;26.70;;;;;;;;;;5038643;28;20415;-75
2022/01/20 13:22:59;;;;;;;55.67;28.27;;;;;;;;;;5039136;28;20071;-75
2022/01/20 13:25:26;;;;;;;53.22;29.02;;;;;;;;;;5037598;28;20104;-75
2022/01/20 13:27:54;;;;;;;53.28;26.95;;;;;;;;;;5038382;28;20406;-74
2022/01/20 13:30:41;;;;;;;46.75;25.98;;;;;;;;;;5037598;28;20033;-74
2022/01/20 13:33:13;;;;;;;51.10;24.80;;;;;;;;;;5037899;28;20026;-75
2022/01/20 13:35:41;;;;;;;46.78;26.55;;;;;;;;;;5038556;28;20045;-75
2022/01/20 13:38:08;;;;;;;50.05;27.42;;;;;;;;;;5038062;28;20370;-76
2022/01/20 13:40:38;;;;;;;48.63;26.90;;;;;;;;;;5020764;28;20137;-75
2022/01/20 13:45:53;;;;;;;50.75;27.02;;;;;;;;;;5037182;28;20096;-75
2022/01/20 13:48:27;;;;;;;50.13;26.83;;;;;;;;;;5021095;28;20047;-75
2022/01/20 13:50:55;;;;;;;41.83;24.45;;;;;;;;;;5037723;28;20033;-74
2022/01/20 13:53:22;;;;;;;47.33;26.38;;;;;;;;;;5038030;28;20044;-75
2022/01/20 13:55:48;;;;;;;57.85;29.67;;;;;;;;;;5021922;28;20374;-75
2022/01/20 13:58:23;;;;;;;56.45;29.90;;;;;;;;;;5038499;28;20335;-75
2022/01/20 14:00:49;;;;;;;39.65;24.48;;;;;;;;;;5038410;28;20017;-74
2022/01/20 14:03:15;;;;;;;44.95;23.63;;;;;;;;;;5037593;28;20382;-75
2022/01/20 14:05:42;;;;;;;44.28;24.30;;;;;;;;;;5037869;28;20073;-75
2022/01/20 14:08:08;;;;;;;52.47;28.83;;;;;;;;;;5021033;28;20026;-75
2022/01/20 14:10:34;;;;;;;52.95;28.38;;;;;;;;;;5037707;28;20033;-75
2022/01/20 14:13:00;;;;;;;47.65;25.52;;;;;;;;;;5036912;28;20021;-75
2022/01/20 14:15:27;;;;;;;46.13;25.65;;;;;;;;;;5037306;28;20022;-75
2022/01/20 14:17:55;;;;;;;43.70;24.40;;;;;;;;;;5037128;28;20024;-74
2022/01/20 14:20:23;;;;;;;53.00;25.48;;;;;;;;;;5036604;28;20097;-75
2022/01/20 14:22:50;;;;;;;54.42;25.40;;;;;;;;;;5020112;28;20442;-75
2022/01/20 14:25:18;;;;;;;76.13;35.60;;;;;;;;;;5020042;28;20033;-75
2022/01/20 14:27:44;;;;;;;71.38;37.38;;;;;;;;;;5037080;28;20064;-75
2022/01/20 14:30:14;;;;;;;69.70;33.90;;;;;;;;;;5037987;28;20503;-75
2022/01/20 14:32:41;;;;;;;64.93;33.53;;;;;;;;;;5020094;28;20021;-75
2022/01/20 14:35:07;;;;;;;81.07;35.60;;;;;;;;;;5021034;28;20017;-75
2022/01/20 14:37:37;;;;;;;73.70;36.67;;;;;;;;;;5020909;28;20081;-76
2022/01/20 14:40:11;;;;;;;73.78;37.17;;;;;;;;;;5037393;28;20087;-76
2022/01/20 14:42:38;;;;;;;89.53;43.88;;;;;;;;;;5036552;28;20032;-75
2022/01/20 14:45:05;;;;;;;86.65;40.15;;;;;;;;;;5020411;28;20078;-76
2022/01/20 14:47:31;;;;;;;94.32;52.33;;;;;;;;;;5037022;28;20017;-76
2022/01/20 14:49:58;;;;;;;92.90;50.58;;;;;;;;;;5035959;28;20128;-75
2022/01/20 14:52:24;;;;;;;91.95;48.65;;;;;;;;;;5036560;28;20424;-76
2022/01/20 14:54:51;;;;;;;86.45;45.50;;;;;;;;;;5038170;28;20037;-76
2022/01/20 14:57:20;;;;;;;87.75;44.65;;;;;;;;;;5036517;28;20048;-74
2022/01/20 14:59:50;;;;;;;76.25;38.90;;;;;;;;;;5037594;28;20032;-76
2022/01/20 15:02:16;;;;;;;79.38;42.92;;;;;;;;;;5036013;28;20021;-76
2022/01/20 15:04:47;;;;;;;71.32;39.20;;;;;;;;;;5019949;28;20127;-75
2022/01/20 15:07:14;;;;;;;73.00;40.17;;;;;;;;;;5036132;28;20364;-75
2022/01/20 15:09:40;;;;;;;66.43;39.58;;;;;;;;;;5036044;28;20068;-74
2022/01/20 15:12:09;;;;;;;65.30;35.47;;;;;;;;;;5035742;28;20095;-75
2022/01/20 15:14:36;;;;;;;65.53;37.08;;;;;;;;;;5035715;28;20331;-75
2022/01/20 15:17:03;;;;;;;72.68;38.53;;;;;;;;;;5019515;28;20025;-75
2022/01/20 15:19:29;;;;;;;66.90;34.10;;;;;;;;;;5035167;28;20017;-75
2022/01/20 15:21:55;;;;;;;65.68;36.25;;;;;;;;;;5019000;28;20035;-75
2022/01/20 15:24:21;;;;;;;78.80;41.83;;;;;;;;;;5018226;28;20108;-74
2022/01/20 15:26:48;;;;;;;74.25;36.08;;;;;;;;;;5035395;28;20022;-75
2022/01/20 15:29:14;;;;;;;65.95;34.83;;;;;;;;;;5035855;28;20089;-74
2022/01/20 15:31:41;;;;;;;71.68;36.92;;;;;;;;;;5035278;28;20040;-74
2022/01/20 15:34:09;;;;;;;71.93;35.25;;;;;;;;;;5036928;28;20147;-75
2022/01/20 15:36:35;;;;;;;52.65;27.38;;;;;;;;;;5035682;28;20021;-74
2022/01/20 15:39:04;;;;;;;65.80;32.22;;;;;;;;;;5034998;28;20343;-75
2022/01/20 15:41:31;;;;;;;51.63;29.13;;;;;;;;;;5019328;28;20021;-75
2022/01/20 15:43:57;;;;;;;56.55;29.65;;;;;;;;;;5035506;28;20336;-75